createdAt,value
2022-10-28T00:01:46.236Z,11.38
2022-10-28T00:04:49.875Z,11.54
2022-10-28T00:07:53.748Z,11.61
2022-10-28T00:11:04.428Z,11.70
2022-10-28T00:14:10.750Z,11.72
2022-10-28T00:17:14.373Z,11.62
2022-10-28T00:20:17.993Z,11.63
2022-10-28T00:23:21.635Z,11.40
2022-10-28T00:26:27.937Z,11.66
2022-10-28T00:29:33.288Z,11.38
2022-10-28T00:32:36.608Z,11.53
2022-10-28T00:35:40.247Z,11.68
2022-10-28T00:38:44.996Z,11.81
2022-10-28T00:41:50.985Z,11.86
2022-10-28T00:44:58.752Z,11.62
2022-10-28T00:48:04.246Z,11.77
2022-10-28T00:51:07.599Z,11.75
2022-10-28T00:54:12.832Z,11.59
2022-10-28T00:57:19.699Z,11.85
2022-10-28T01:00:26.190Z,11.98
2022-10-28T01:03:29.698Z,11.96
2022-10-28T01:06:33.364Z,11.98
2022-10-28T01:09:36.769Z,11.90
2022-10-28T01:12:54.402Z,11.77
2022-10-28T01:16:08.581Z,11.78
2022-10-28T01:19:48.743Z,11.79
2022-10-28T01:22:59.837Z,11.75
2022-10-28T01:26:24.258Z,11.65
2022-10-28T01:29:58.118Z,11.68
2022-10-28T01:33:09.929Z,11.58
2022-10-28T01:36:18.308Z,11.81
2022-10-28T01:39:32.035Z,11.76
2022-10-28T01:42:43.267Z,11.75
2022-10-28T01:45:53.263Z,11.73
2022-10-28T01:49:01.065Z,11.74
2022-10-28T01:52:07.325Z,11.78
2022-10-28T01:55:16.756Z,11.88
2022-10-28T01:58:24.646Z,11.86
2022-10-28T02:01:29.888Z,11.97
2022-10-28T02:04:35.069Z,12.01
2022-10-28T02:07:38.988Z,11.89
2022-10-28T02:10:53.376Z,11.95
2022-10-28T02:14:06.905Z,12.06
2022-10-28T02:17:24.910Z,11.92
2022-10-28T02:20:37.919Z,12.17
2022-10-28T02:23:46.903Z,12.22
2022-10-28T02:26:57.957Z,12.10
2022-10-28T02:30:06.749Z,12.25
2022-10-28T02:33:16.289Z,12.37
2022-10-28T02:36:24.068Z,12.45
2022-10-28T02:39:35.537Z,12.44
2022-10-28T02:42:42.827Z,12.42
2022-10-28T02:45:50.596Z,12.43
2022-10-28T02:48:58.227Z,12.28
2022-10-28T02:52:06.977Z,12.32
2022-10-28T02:55:10.838Z,12.18
2022-10-28T02:58:14.446Z,12.20
2022-10-28T03:01:18.391Z,12.26
2022-10-28T03:04:40.766Z,12.23
2022-10-28T03:07:45.828Z,12.33
2022-10-28T03:10:49.243Z,12.29
2022-10-28T03:13:52.824Z,12.34
2022-10-28T03:16:56.144Z,12.28
2022-10-28T03:19:59.757Z,12.26
2022-10-28T03:23:04.455Z,12.21
2022-10-28T03:26:08.032Z,12.09
2022-10-28T03:29:11.372Z,11.99
2022-10-28T03:32:15.177Z,11.91
2022-10-28T03:35:18.546Z,12.00
2022-10-28T03:38:23.660Z,11.96
2022-10-28T03:41:27.085Z,11.74
2022-10-28T03:44:30.871Z,11.68
2022-10-28T03:47:35.364Z,11.77
2022-10-28T03:50:38.928Z,11.71
2022-10-28T03:53:43.650Z,11.55
2022-10-28T03:56:47.340Z,11.58
2022-10-28T03:59:50.866Z,11.54
2022-10-28T04:02:55.276Z,11.53
2022-10-28T04:05:58.806Z,11.41
2022-10-28T04:09:03.833Z,11.27
2022-10-28T04:12:07.917Z,11.28
2022-10-28T04:15:11.712Z,11.32
2022-10-28T04:18:15.173Z,11.34
2022-10-28T04:21:19.128Z,11.24
2022-10-28T04:24:24.289Z,11.26
2022-10-28T04:27:29.138Z,11.10
2022-10-28T04:30:32.702Z,11.15
2022-10-28T04:33:36.255Z,11.08
2022-10-28T04:36:39.935Z,11.10
2022-10-28T04:39:45.051Z,10.95
2022-10-28T04:42:48.350Z,10.95
2022-10-28T04:45:52.070Z,10.55
2022-10-28T04:48:55.392Z,10.52
2022-10-28T04:51:59.003Z,10.65
2022-10-28T04:55:03.774Z,10.77
2022-10-28T04:58:07.482Z,10.83
2022-10-28T05:01:11.928Z,10.86
2022-10-28T05:04:15.532Z,10.61
2022-10-28T05:07:21.370Z,10.41
2022-10-28T05:10:50.093Z,10.50
2022-10-28T05:13:54.170Z,10.54
2022-10-28T05:16:57.868Z,10.61
2022-10-28T05:20:01.414Z,10.62
2022-10-28T05:23:05.511Z,10.51
2022-10-28T05:26:10.384Z,10.34
2022-10-28T05:29:13.995Z,10.49
2022-10-28T05:32:17.378Z,10.67
2022-10-28T05:35:21.009Z,10.64
2022-10-28T05:38:24.321Z,10.60
2022-10-28T05:41:29.294Z,10.73
2022-10-28T05:44:32.686Z,10.76
2022-10-28T05:47:39.249Z,10.79
2022-10-28T05:50:43.610Z,10.74
2022-10-28T05:53:47.277Z,10.91
2022-10-28T05:56:52.022Z,10.93
2022-10-28T05:59:55.656Z,10.93
2022-10-28T06:03:04.348Z,10.75
2022-10-28T06:06:08.476Z,10.91
2022-10-28T06:09:11.908Z,10.83
2022-10-28T06:12:15.425Z,10.94
2022-10-28T06:15:18.800Z,10.87
2022-10-28T06:18:23.588Z,11.05
2022-10-28T06:21:26.919Z,11.25
2022-10-28T06:24:30.614Z,11.46
2022-10-28T06:27:35.460Z,11.56
2022-10-28T06:30:39.064Z,11.73
2022-10-28T06:33:43.457Z,11.85
2022-10-28T06:36:47.312Z,11.93
2022-10-28T06:39:52.056Z,12.03
2022-10-28T06:43:01.179Z,12.14
2022-10-28T06:46:04.782Z,12.08
2022-10-28T06:49:10.362Z,12.20
2022-10-28T06:52:13.834Z,12.34
2022-10-28T06:55:17.538Z,12.40
2022-10-28T06:58:22.333Z,12.57
2022-10-28T07:01:28.270Z,12.69
2022-10-28T07:04:35.852Z,12.81
2022-10-28T07:07:42.891Z,12.84
2022-10-28T07:10:56.303Z,12.98
2022-10-28T07:14:01.737Z,13.10
2022-10-28T07:17:05.658Z,13.23
2022-10-28T07:20:10.817Z,13.35
2022-10-28T07:23:14.575Z,13.41
2022-10-28T07:26:23.043Z,13.47
2022-10-28T07:29:27.964Z,13.47
2022-10-28T07:32:33.791Z,13.53
2022-10-28T07:35:37.311Z,13.59
2022-10-28T07:38:41.073Z,13.70
2022-10-28T07:41:44.548Z,13.79
2022-10-28T07:44:49.586Z,13.91
2022-10-28T07:47:53.224Z,14.00
2022-10-28T07:50:57.118Z,14.11
2022-10-28T07:54:00.650Z,14.14
2022-10-28T07:57:04.422Z,14.18
2022-10-28T08:00:10.436Z,14.27
2022-10-28T08:03:14.268Z,14.25
2022-10-28T08:06:20.441Z,14.32
2022-10-28T08:09:24.175Z,14.43
2022-10-28T08:12:28.321Z,14.43
2022-10-28T08:15:33.340Z,14.48
2022-10-28T08:18:37.518Z,14.56
2022-10-28T08:21:44.305Z,14.66
2022-10-28T08:24:47.676Z,14.67
2022-10-28T08:27:51.248Z,14.77
2022-10-28T08:31:08.950Z,14.85
2022-10-28T08:34:13.310Z,14.99
2022-10-28T08:37:17.246Z,15.05
2022-10-28T08:40:28.926Z,15.09
2022-10-28T08:43:57.326Z,15.20
2022-10-28T08:47:14.823Z,15.28
2022-10-28T08:50:21.577Z,15.40
2022-10-28T08:53:29.619Z,15.44
2022-10-28T08:56:36.608Z,15.56
2022-10-28T08:59:42.256Z,15.65
2022-10-28T09:03:08.140Z,15.69
2022-10-28T09:06:12.509Z,15.83
2022-10-28T09:09:20.962Z,15.89
2022-10-28T09:12:39.408Z,15.95
2022-10-28T09:15:51.559Z,16.06
2022-10-28T09:18:59.967Z,16.19
2022-10-28T09:22:19.916Z,16.22
2022-10-28T09:25:30.991Z,16.32
2022-10-28T09:28:52.175Z,16.37
2022-10-28T09:32:03.525Z,16.48
2022-10-28T09:35:13.522Z,16.55
2022-10-28T09:38:27.485Z,16.65
2022-10-28T09:41:35.204Z,16.75
2022-10-28T09:44:46.088Z,16.79
2022-10-28T09:47:57.128Z,16.85
2022-10-28T09:51:05.182Z,16.94
2022-10-28T09:54:09.527Z,17.00
2022-10-28T09:57:16.406Z,17.04
2022-10-28T10:00:21.028Z,17.17
2022-10-28T10:03:24.617Z,17.20
2022-10-28T10:06:33.616Z,17.22
2022-10-28T10:09:38.519Z,17.29
2022-10-28T10:12:42.600Z,17.35
2022-10-28T10:15:50.121Z,17.40
2022-10-28T10:18:58.910Z,17.44
2022-10-28T10:22:03.952Z,17.47
2022-10-28T10:25:25.385Z,17.58
2022-10-28T10:28:30.132Z,17.71
2022-10-28T10:31:33.601Z,17.84
2022-10-28T10:34:37.517Z,17.86
2022-10-28T10:37:46.852Z,17.92
2022-10-28T10:40:51.995Z,17.99
2022-10-28T10:43:55.439Z,17.98
2022-10-28T10:47:19.651Z,17.99
2022-10-28T10:50:28.479Z,18.18
2022-10-28T10:53:35.210Z,18.18
2022-10-28T10:56:38.802Z,18.32
2022-10-28T10:59:47.958Z,18.29
2022-10-28T11:02:55.796Z,18.37
2022-10-28T11:09:32.963Z,18.48
2022-10-28T11:12:38.913Z,18.66
2022-10-28T11:15:42.267Z,18.73
2022-10-28T11:18:47.862Z,18.79
2022-10-28T11:22:20.340Z,18.70
2022-10-28T11:25:37.935Z,18.72
2022-10-28T11:28:57.541Z,18.76
2022-10-28T11:32:30.430Z,18.79
2022-10-28T11:35:56.133Z,18.86
2022-10-28T11:39:19.332Z,18.92
2022-10-28T11:42:39.023Z,18.95
2022-10-28T11:45:51.428Z,19.06
2022-10-28T11:49:10.299Z,19.13
2022-10-28T11:52:28.622Z,19.17
2022-10-28T11:55:39.770Z,19.24
2022-10-28T11:58:54.438Z,19.30
2022-10-28T12:02:13.045Z,19.34
2022-10-28T12:05:24.744Z,19.41
2022-10-28T12:08:45.152Z,19.39
2022-10-28T12:12:07.070Z,19.48
2022-10-28T12:15:22.978Z,19.54
2022-10-28T12:18:34.458Z,19.55
2022-10-28T12:21:41.557Z,19.60
2022-10-28T12:24:47.866Z,19.55
2022-10-28T12:27:56.818Z,19.58
2022-10-28T12:31:04.008Z,19.58
2022-10-28T12:34:15.649Z,19.61
2022-10-28T12:37:23.381Z,19.67
2022-10-28T12:40:30.601Z,19.69
2022-10-28T12:43:39.422Z,19.66
2022-10-28T12:46:51.459Z,19.63
2022-10-28T12:50:04.068Z,19.63
2022-10-28T12:53:24.852Z,19.62
2022-10-28T12:56:34.393Z,19.71
2022-10-28T12:59:43.494Z,19.71
2022-10-28T13:02:55.713Z,19.71
2022-10-28T13:06:18.181Z,19.70
2022-10-28T13:09:43.179Z,19.64
2022-10-28T13:13:09.318Z,19.68
2022-10-28T13:16:35.159Z,19.72
2022-10-28T13:19:54.539Z,19.80
2022-10-28T13:23:26.774Z,19.76
2022-10-28T13:26:40.606Z,19.85
2022-10-28T13:29:54.906Z,19.87
2022-10-28T13:33:06.218Z,19.88
2022-10-28T13:36:22.729Z,19.86
2022-10-28T13:39:43.203Z,19.85
2022-10-28T13:42:49.508Z,19.89
2022-10-28T13:45:55.091Z,19.96
2022-10-28T13:49:26.060Z,19.90
2022-10-28T13:52:30.944Z,19.78
2022-10-28T13:55:45.455Z,19.78
2022-10-28T13:58:54.469Z,19.78
2022-10-28T14:02:32.376Z,19.83
2022-10-28T14:05:48.710Z,19.75
2022-10-28T14:09:23.351Z,19.67
2022-10-28T14:12:32.910Z,19.75
2022-10-28T14:15:39.695Z,19.78
2022-10-28T14:18:56.087Z,19.73
2022-10-28T14:22:03.257Z,19.75
2022-10-28T14:25:54.558Z,19.64
2022-10-28T14:28:58.163Z,19.72
2022-10-28T14:32:51.631Z,19.64
2022-10-28T14:36:19.698Z,19.64
2022-10-28T14:39:41.178Z,19.62
2022-10-28T14:43:07.058Z,19.57
2022-10-28T14:46:31.426Z,19.57
2022-10-28T14:49:37.247Z,19.66
2022-10-28T14:52:41.176Z,19.60
2022-10-28T14:55:47.249Z,19.63
2022-10-28T14:58:52.930Z,19.56
2022-10-28T15:02:11.103Z,19.48
2022-10-28T15:05:18.586Z,19.40
2022-10-28T15:08:22.537Z,19.39
2022-10-28T15:11:26.044Z,19.38
2022-10-28T15:14:37.582Z,19.30
2022-10-28T15:17:41.731Z,19.29
2022-10-28T15:20:46.005Z,19.26
2022-10-28T15:24:00.934Z,19.05
2022-10-28T15:27:07.916Z,19.00
2022-10-28T15:30:19.082Z,18.97
2022-10-28T15:33:31.106Z,18.88
2022-10-28T15:36:34.964Z,18.89
2022-10-28T15:39:40.863Z,18.85
2022-10-28T15:42:51.345Z,18.74
2022-10-28T15:46:10.688Z,18.64
2022-10-28T15:49:33.640Z,18.50
2022-10-28T15:52:39.166Z,18.43
2022-10-28T15:56:06.572Z,18.36
2022-10-28T15:59:21.577Z,18.21
2022-10-28T16:02:42.951Z,18.07
2022-10-28T16:05:47.454Z,18.11
2022-10-28T16:09:01.239Z,17.92
2022-10-28T16:12:15.940Z,17.82
2022-10-28T16:15:19.429Z,17.65
2022-10-28T16:18:26.704Z,17.59
2022-10-28T16:21:30.228Z,17.37
2022-10-28T16:24:34.027Z,17.32
2022-10-28T16:27:37.579Z,17.24
2022-10-28T16:30:41.320Z,17.22
2022-10-28T16:33:46.792Z,16.80
2022-10-28T16:36:50.713Z,16.94
2022-10-28T16:39:54.707Z,16.89
2022-10-28T16:42:58.899Z,16.75
2022-10-28T16:46:02.558Z,16.72
2022-10-28T16:49:07.790Z,16.59
2022-10-28T16:52:16.380Z,16.41
2022-10-28T16:55:20.391Z,16.36
2022-10-28T16:58:26.141Z,16.30
2022-10-28T17:01:30.887Z,16.24
2022-10-28T17:04:35.938Z,16.17
2022-10-28T17:07:39.714Z,16.12
2022-10-28T17:10:44.290Z,16.04
2022-10-28T17:13:49.122Z,15.91
2022-10-28T17:16:52.696Z,15.93
2022-10-28T17:19:57.740Z,15.67
2022-10-28T17:23:01.260Z,15.61
2022-10-28T17:26:05.171Z,15.61
2022-10-28T17:29:11.902Z,15.47
2022-10-28T17:32:16.125Z,15.37
2022-10-28T17:35:23.865Z,15.10
2022-10-28T17:38:30.536Z,15.16
2022-10-28T17:41:34.046Z,14.87
2022-10-28T17:44:37.950Z,15.04
2022-10-28T17:47:41.623Z,15.00
2022-10-28T17:50:55.104Z,14.92
2022-10-28T17:53:59.653Z,15.15
2022-10-28T17:57:03.519Z,14.72
2022-10-28T18:00:08.257Z,14.59
2022-10-28T18:03:15.394Z,14.84
2022-10-28T18:06:20.789Z,14.92
2022-10-28T18:09:25.378Z,14.70
2022-10-28T18:12:28.912Z,14.54
2022-10-28T18:15:33.002Z,14.40
2022-10-28T18:18:41.076Z,14.48
2022-10-28T18:21:50.242Z,14.67
2022-10-28T18:24:54.187Z,14.71
2022-10-28T18:27:58.109Z,14.55
2022-10-28T18:31:03.511Z,14.44
2022-10-28T18:34:07.425Z,14.17
2022-10-28T18:37:12.544Z,14.01
2022-10-28T18:40:16.496Z,13.99
2022-10-28T18:43:21.865Z,13.81
2022-10-28T18:46:26.659Z,13.64
2022-10-28T18:49:31.037Z,13.54
2022-10-28T18:52:36.270Z,13.83
2022-10-28T18:55:39.711Z,13.97
2022-10-28T18:58:43.821Z,13.97
2022-10-28T19:01:48.412Z,14.03
2022-10-28T19:04:52.657Z,13.88
2022-10-28T19:07:57.813Z,13.69
2022-10-28T19:11:03.280Z,13.60
2022-10-28T19:14:08.604Z,13.75
2022-10-28T19:17:12.580Z,13.49
2022-10-28T19:20:16.186Z,13.23
2022-10-28T19:23:21.497Z,13.51
2022-10-28T19:26:25.751Z,13.37
2022-10-28T19:29:29.499Z,13.31
2022-10-28T19:32:33.303Z,13.04
2022-10-28T19:35:36.965Z,13.21
2022-10-28T19:38:41.873Z,13.27
2022-10-28T19:41:45.750Z,13.19
2022-10-28T19:44:49.141Z,13.13
2022-10-28T19:47:53.204Z,13.24
2022-10-28T19:50:56.841Z,13.34
2022-10-28T19:54:03.668Z,13.43
2022-10-28T19:57:07.285Z,13.29
2022-10-28T20:00:11.993Z,13.13
2022-10-28T20:03:15.553Z,13.03
2022-10-28T20:06:20.596Z,12.84
2022-10-28T20:09:28.954Z,12.69
2022-10-28T20:12:33.369Z,12.54
2022-10-28T20:15:57.747Z,12.48
2022-10-28T20:19:01.511Z,12.58
2022-10-28T20:22:07.414Z,12.74
2022-10-28T20:25:12.995Z,12.78
2022-10-28T20:28:16.766Z,12.62
2022-10-28T20:31:22.417Z,12.72
2022-10-28T20:34:26.024Z,12.67
2022-10-28T20:37:29.882Z,12.69
2022-10-28T20:40:36.102Z,12.33
2022-10-28T20:43:39.846Z,12.20
2022-10-28T20:46:45.107Z,12.28
2022-10-28T20:49:48.677Z,12.21
2022-10-28T20:52:52.278Z,12.15
2022-10-28T20:55:58.609Z,12.15
2022-10-28T20:59:02.011Z,12.08
2022-10-28T21:02:06.142Z,12.08
2022-10-28T21:05:10.315Z,12.20
2022-10-28T21:08:14.512Z,12.44
2022-10-28T21:11:20.128Z,12.39
2022-10-28T21:14:24.600Z,12.35
2022-10-28T21:17:28.741Z,12.02
2022-10-28T21:20:32.723Z,11.95
2022-10-28T21:23:36.114Z,12.19
2022-10-28T21:26:41.077Z,12.03
2022-10-28T21:29:44.579Z,11.93
2022-10-28T21:32:48.221Z,12.03
2022-10-28T21:35:56.829Z,11.92
2022-10-28T21:39:00.441Z,11.78
2022-10-28T21:42:05.618Z,11.57
2022-10-28T21:45:10.254Z,11.56
2022-10-28T21:48:13.661Z,11.66
2022-10-28T21:51:18.389Z,11.47
2022-10-28T21:54:21.801Z,11.45
2022-10-28T21:57:30.747Z,11.32
2022-10-28T22:00:34.124Z,11.59
2022-10-28T22:03:38.216Z,11.35
2022-10-28T22:06:41.959Z,11.26
2022-10-28T22:09:45.588Z,11.24
2022-10-28T22:12:50.539Z,10.93
2022-10-28T22:15:59.029Z,11.01
2022-10-28T22:19:05.033Z,10.77
2022-10-28T22:22:08.634Z,10.75
2022-10-28T22:25:12.083Z,10.84
2022-10-28T22:28:17.115Z,10.89
2022-10-28T22:31:22.349Z,11.25
2022-10-28T22:34:25.890Z,11.07
2022-10-28T22:37:29.311Z,10.98
2022-10-28T22:40:32.856Z,10.84
2022-10-28T22:43:37.734Z,10.99
2022-10-28T22:46:42.196Z,11.04
2022-10-28T22:49:45.559Z,10.88
2022-10-28T22:52:49.081Z,11.07
2022-10-28T22:55:54.065Z,11.28
2022-10-28T22:59:01.033Z,11.05
2022-10-28T23:02:04.487Z,11.06
2022-10-28T23:05:09.361Z,10.48
2022-10-28T23:08:16.227Z,10.72
2022-10-28T23:11:21.299Z,10.94
2022-10-28T23:14:26.014Z,10.93
2022-10-28T23:17:29.560Z,10.91
2022-10-28T23:20:33.126Z,10.99
2022-10-28T23:23:36.766Z,10.77
2022-10-28T23:26:40.317Z,10.77
2022-10-28T23:29:45.277Z,10.94
2022-10-28T23:32:48.719Z,11.10
2022-10-28T23:35:55.970Z,11.03
2022-10-28T23:38:59.352Z,11.04
2022-10-28T23:42:02.936Z,10.68
2022-10-28T23:45:11.151Z,10.76
2022-10-28T23:48:14.748Z,10.74
2022-10-28T23:51:19.294Z,10.61
2022-10-28T23:54:23.109Z,10.36
2022-10-28T23:57:26.482Z,10.37
